Newton, MA (02461)

7:36 AM EST on December 26, 2014 (GMT -0500)
Arklay S.Richards Co., Inc. | Change Station
CLOSE
Current Station
Personal Weather Station
Location: Newton Highlands, MA
Elevation: 121 ft
Nearby Weather Stations

Elev 121 ft 42.32 °N, 71.21 °W | Updated 1 day ago

Partly Cloudy
Partly Cloudy
36 °F
Feels Like 29 °F
N
8
Wind Variable Wind from WSW
Gusts 14 mph

Today
High -- | Low -- °F
--% Chance of Precip.
Yesterday
High -- | Low -- °F
Precip. -- in
7:12 AM 4:18 PM
Waxing Crescent, 25% visible
Pressure 30.12 in
Visibility 10.0 miles
Clouds Clear
Windchill 29 °F
Dew Point 29 °F
Humidity 76%
Rainfall 0.07 in
Snow Depth Not available.
UV 0 out of 12
Pollen .10 out of 12
Air Quality Not available.
Flu Activity Not available.
METAR KOWD 261153Z 23005KT 10SM CLR 02/M02 A3011 RMK AO2 SLP198 70009 T00221022 10056 21006 53019

More Conditions Fewer Conditions

Pressure 30.12 in
Visibility 10.0 miles
Clouds Clear
Windchill 29 °F
Dew Point 29 °F
Humidity 76%
Rainfall 0.07 in
Snow Depth Not available.
UV 0 out of 12
Pollen .10 out of 12
Air Quality Not available.
Flu Activity Not available.
METAR KOWD 261153Z 23005KT 10SM CLR 02/M02 A3011 RMK AO2 SLP198 70009 T00221022 10056 21006 53019

More Conditions Fewer Conditions

10-Day Weather Forecast

Almanac

Astronomy

Dec. 26, 2014 Rise Set
Actual Time
Civil Twilight
Nautical Twilight
Astronomical Twilight
Moon
Length of Visible Light
Length of Day
Tomorrow will be .
, % of the Moon is Illuminated

Today's Extremes

State Highs State Lows

Community

WunderPhotos

Upload Photos

1,780,586 photos uploaded!

WunderBlogs® & News

Nearby

Air Quality

  Air Quality AQ Index Pollutant
Not available.

Snow Depth

Station Depth Elevation

Earthquake Activity

City Distance Mag. Time & Date
Minimum magnitude displayed is 2.5.

Coastal Water Temperatures

Place Temperature

Nearby Weather Stations